ASA342 PAPG-PAJN
Flight info
| Callsign | ASA342 |
|---|---|
| Flight time | N/A |
| Altitude | 20000 |
| Route | SSR |
| Aircraft | B738/M-SDE2E3FGHIRWXY/LB1 |
Departure
| Time | 2026-05-03 20:40 |
|---|---|
| Airport | Petersburg James A Johnson Airport (PAPG) |
Arrival
| Time | N/A |
|---|---|
| Airport | Juneau International Airport (PAJN) |
| Time | Latitude | Longitude | Altitude | Speed | Heading |
|---|---|---|---|---|---|
| 2026-05-03 20:27 | 56.80542 | -132.93576 | 78 ft | 0 kts | 249° |
| 2026-05-03 20:38 | 56.80541 | -132.93579 | 78 ft | 0 kts | 248° |
| 2026-05-03 20:38 | 56.80540 | -132.93581 | 78 ft | 0 kts | 229° |
| 2026-05-03 20:39 | 56.80518 | -132.93486 | 80 ft | 14 kts | 56° |
| 2026-05-03 20:39 | 56.80478 | -132.93373 | 81 ft | 9 kts | 162° |
| 2026-05-03 20:39 | 56.80412 | -132.93355 | 82 ft | 8 kts | 170° |
| 2026-05-03 20:39 | 56.80391 | -132.93373 | 83 ft | 1 kts | 240° |
| 2026-05-03 20:40 | 56.80306 | -132.93800 | 79 ft | 87 kts | 246° |
| 2026-05-03 20:40 | 56.80011 | -132.95348 | 231 ft | 157 kts | 252° |
| 2026-05-03 20:40 | 56.79620 | -132.97141 | 1188 ft | 154 kts | 247° |
| 2026-05-03 20:40 | 56.79203 | -132.99030 | 1814 ft | 171 kts | 260° |
| 2026-05-03 20:41 | 56.79242 | -133.01270 | 2229 ft | 195 kts | 278° |
| 2026-05-03 20:41 | 56.79409 | -133.03906 | 2607 ft | 216 kts | 277° |
| 2026-05-03 20:41 | 56.79556 | -133.06653 | 2961 ft | 222 kts | 277° |
| 2026-05-03 20:41 | 56.79911 | -133.09349 | 3787 ft | 218 kts | 298° |
| 2026-05-03 20:42 | 56.80936 | -133.11099 | 4864 ft | 203 kts | 329° |
| 2026-05-03 20:42 | 56.82091 | -133.12302 | 5914 ft | 188 kts | 328° |
| 2026-05-03 20:42 | 56.83120 | -133.13600 | 6780 ft | 184 kts | 323° |
| 2026-05-03 20:42 | 56.84158 | -133.15096 | 7297 ft | 197 kts | 321° |
| 2026-05-03 20:43 | 56.85260 | -133.16751 | 7643 ft | 214 kts | 320° |
| 2026-05-03 20:43 | 56.86425 | -133.18506 | 7992 ft | 226 kts | 320° |
| 2026-05-03 20:43 | 56.87655 | -133.20358 | 8349 ft | 234 kts | 320° |
| 2026-05-03 20:43 | 56.88937 | -133.22298 | 8708 ft | 240 kts | 319° |
| 2026-05-03 20:44 | 56.90216 | -133.24226 | 9050 ft | 244 kts | 319° |
| 2026-05-03 20:44 | 56.91544 | -133.26224 | 9403 ft | 246 kts | 319° |
| 2026-05-03 20:44 | 56.92860 | -133.28204 | 9750 ft | 248 kts | 319° |
| 2026-05-03 20:44 | 56.94181 | -133.30196 | 10096 ft | 248 kts | 319° |
| 2026-05-03 20:45 | 56.95510 | -133.32210 | 10443 ft | 249 kts | 318° |
| 2026-05-03 20:45 | 56.96845 | -133.34236 | 10792 ft | 249 kts | 318° |
| 2026-05-03 20:45 | 56.98163 | -133.36241 | 11136 ft | 249 kts | 318° |
| 2026-05-03 20:45 | 56.99490 | -133.38254 | 11483 ft | 248 kts | 317° |
| 2026-05-03 20:46 | 57.00820 | -133.40265 | 11827 ft | 248 kts | 317° |
| 2026-05-03 20:46 | 57.02133 | -133.42256 | 12168 ft | 247 kts | 317° |
| 2026-05-03 20:46 | 57.03457 | -133.44275 | 12514 ft | 247 kts | 317° |
| 2026-05-03 20:46 | 57.04772 | -133.46280 | 12862 ft | 246 kts | 317° |
| 2026-05-03 20:47 | 57.06071 | -133.48259 | 13203 ft | 245 kts | 316° |
| 2026-05-03 20:47 | 57.07375 | -133.50247 | 13542 ft | 244 kts | 316° |
| 2026-05-03 20:47 | 57.08673 | -133.52231 | 13880 ft | 244 kts | 316° |
| 2026-05-03 20:47 | 57.09976 | -133.54219 | 14228 ft | 243 kts | 316° |
| 2026-05-03 20:48 | 57.11269 | -133.56200 | 14570 ft | 242 kts | 316° |
| 2026-05-03 20:48 | 57.12552 | -133.58170 | 14910 ft | 241 kts | 315° |
| 2026-05-03 20:48 | 57.13717 | -133.59946 | 15331 ft | 232 kts | 316° |
| 2026-05-03 20:48 | 57.14939 | -133.61815 | 15804 ft | 227 kts | 315° |